Terminal Aerodrome Forecast
Issued by NWS

Home | Current Version | Previous Version | Text Only | Print | Product List | Glossary On
Versions: 1 2 3 4 5 6 7 8 9 10 11 12 13 14 15 16 17 18 19 20 21 22 23
000
FTUS45 KGGW 032320
TAFGDV
TAF
KGDV 032320Z 0400/0424 03010KT P6SM BKN150
     FM040900 02010KT P6SM VCSH BKN070
     FM042100 02013KT P6SM VCTS BKN045CB
      AMD LTD TO CLD VIS AND WIND=

USA.gov is the U.S. government's official web portal to all federal, state and local government web resources and services.